Terminal Aerodrome Forecast
Issued by NWS Goodland, KS

Home | Current Version | Previous Version | Text Only | Print | Product List | Glossary On
Versions: 1 2 3 4 5 6 7 8 9 10 11 12 13 14 15 16 17 18 19 20 21 22 23
000
FTUS43 KGLD 300005 RRA
TAFGLD
TAF
KGLD 300005Z 3000/3024 18009KT P6SM FEW040 SCT120 BKN250
     FM300200 20004KT P6SM VCTS SCT050CB BKN110
     FM300800 VRB03KT P6SM BKN050
      TEMPO 3010/3012 3SM BR OVC025
     FM301200 VRB03KT 3SM BR BKN015
      TEMPO 3012/3015 1SM BR BKN008
     FM301500 10005KT P6SM BKN035 PROB30 3019/3024 -TSRA OVC025CB=

USA.gov is the U.S. government's official web portal to all federal, state and local government web resources and services.